sensor_id;sensor_type;location;lat;lon;timestamp;temperature;humidity
4399;DHT22;2213;49.720;7.296;2023-04-25T00:01:46;8.50;99.90
4399;DHT22;2213;49.720;7.296;2023-04-25T00:04:16;8.50;99.90
4399;DHT22;2213;49.720;7.296;2023-04-25T00:06:45;8.50;99.90
4399;DHT22;2213;49.720;7.296;2023-04-25T00:09:13;8.50;99.90
4399;DHT22;2213;49.720;7.296;2023-04-25T00:11:42;8.50;99.90
4399;DHT22;2213;49.720;7.296;2023-04-25T00:14:11;8.50;99.90
4399;DHT22;2213;49.720;7.296;2023-04-25T00:16:39;8.50;99.90
4399;DHT22;2213;49.720;7.296;2023-04-25T00:19:10;8.50;99.90
4399;DHT22;2213;49.720;7.296;2023-04-25T00:21:41;8.60;99.90
4399;DHT22;2213;49.720;7.296;2023-04-25T00:24:13;8.60;99.90
4399;DHT22;2213;49.720;7.296;2023-04-25T00:26:42;8.60;99.90
4399;DHT22;2213;49.720;7.296;2023-04-25T00:29:10;8.60;99.90
4399;DHT22;2213;49.720;7.296;2023-04-25T00:31:39;8.60;99.90
4399;DHT22;2213;49.720;7.296;2023-04-25T00:34:08;8.60;99.90
4399;DHT22;2213;49.720;7.296;2023-04-25T00:36:36;8.60;99.90
4399;DHT22;2213;49.720;7.296;2023-04-25T00:39:06;8.60;99.90
4399;DHT22;2213;49.720;7.296;2023-04-25T00:41:35;8.60;99.90
4399;DHT22;2213;49.720;7.296;2023-04-25T00:44:04;8.60;99.90
4399;DHT22;2213;49.720;7.296;2023-04-25T00:46:35;8.50;99.90
4399;DHT22;2213;49.720;7.296;2023-04-25T00:49:04;8.50;99.90
4399;DHT22;2213;49.720;7.296;2023-04-25T00:51:33;8.50;99.90
4399;DHT22;2213;49.720;7.296;2023-04-25T00:54:02;8.50;99.90
4399;DHT22;2213;49.720;7.296;2023-04-25T00:56:32;8.50;99.90
4399;DHT22;2213;49.720;7.296;2023-04-25T00:59:01;8.50;99.90
4399;DHT22;2213;49.720;7.296;2023-04-25T01:01:30;8.50;99.90
4399;DHT22;2213;49.720;7.296;2023-04-25T01:03:59;8.50;99.90
4399;DHT22;2213;49.720;7.296;2023-04-25T01:06:30;8.50;99.90
4399;DHT22;2213;49.720;7.296;2023-04-25T01:09:00;8.50;99.90
4399;DHT22;2213;49.720;7.296;2023-04-25T01:11:29;8.50;99.90
4399;DHT22;2213;49.720;7.296;2023-04-25T01:13:59;8.50;99.90
4399;DHT22;2213;49.720;7.296;2023-04-25T01:16:29;8.50;99.90
4399;DHT22;2213;49.720;7.296;2023-04-25T01:18:58;8.50;99.90
4399;DHT22;2213;49.720;7.296;2023-04-25T01:21:28;8.50;99.90
4399;DHT22;2213;49.720;7.296;2023-04-25T01:23:57;8.50;99.90
4399;DHT22;2213;49.720;7.296;2023-04-25T01:26:26;8.50;99.90
4399;DHT22;2213;49.720;7.296;2023-04-25T01:28:55;8.50;99.90
4399;DHT22;2213;49.720;7.296;2023-04-25T01:31:26;8.50;99.90
4399;DHT22;2213;49.720;7.296;2023-04-25T01:33:56;8.50;99.90
4399;DHT22;2213;49.720;7.296;2023-04-25T01:36:25;8.50;99.90
4399;DHT22;2213;49.720;7.296;2023-04-25T01:38:55;8.50;99.90
4399;DHT22;2213;49.720;7.296;2023-04-25T01:41:24;8.40;99.90
4399;DHT22;2213;49.720;7.296;2023-04-25T01:43:53;8.50;99.90
4399;DHT22;2213;49.720;7.296;2023-04-25T01:46:22;8.50;99.90
4399;DHT22;2213;49.720;7.296;2023-04-25T01:48:51;8.50;99.90
4399;DHT22;2213;49.720;7.296;2023-04-25T01:51:20;8.50;99.90
4399;DHT22;2213;49.720;7.296;2023-04-25T01:53:50;8.50;99.90
4399;DHT22;2213;49.720;7.296;2023-04-25T01:56:22;8.50;99.90
4399;DHT22;2213;49.720;7.296;2023-04-25T01:58:52;8.50;99.90
4399;DHT22;2213;49.720;7.296;2023-04-25T02:01:23;8.50;99.90
4399;DHT22;2213;49.720;7.296;2023-04-25T02:03:52;8.50;99.90
4399;DHT22;2213;49.720;7.296;2023-04-25T02:06:23;8.50;99.90
4399;DHT22;2213;49.720;7.296;2023-04-25T02:08:53;8.40;99.90
4399;DHT22;2213;49.720;7.296;2023-04-25T02:11:24;8.30;99.90
4399;DHT22;2213;49.720;7.296;2023-04-25T02:13:53;8.30;99.90
4399;DHT22;2213;49.720;7.296;2023-04-25T02:16:23;8.30;99.90
4399;DHT22;2213;49.720;7.296;2023-04-25T02:18:53;8.30;99.90
4399;DHT22;2213;49.720;7.296;2023-04-25T02:21:23;8.20;99.90
4399;DHT22;2213;49.720;7.296;2023-04-25T02:23:54;8.20;99.90
4399;DHT22;2213;49.720;7.296;2023-04-25T02:26:25;8.20;99.90
4399;DHT22;2213;49.720;7.296;2023-04-25T02:28:55;8.20;99.90
4399;DHT22;2213;49.720;7.296;2023-04-25T02:31:26;8.20;99.90
4399;DHT22;2213;49.720;7.296;2023-04-25T02:33:56;8.20;99.90
4399;DHT22;2213;49.720;7.296;2023-04-25T02:36:27;8.10;99.90
4399;DHT22;2213;49.720;7.296;2023-04-25T02:39:00;8.10;99.90
4399;DHT22;2213;49.720;7.296;2023-04-25T02:41:32;8.00;99.90
4399;DHT22;2213;49.720;7.296;2023-04-25T02:44:02;8.00;99.90
4399;DHT22;2213;49.720;7.296;2023-04-25T02:46:32;8.00;99.90
4399;DHT22;2213;49.720;7.296;2023-04-25T02:49:06;8.00;99.90
4399;DHT22;2213;49.720;7.296;2023-04-25T02:51:35;8.00;99.90
4399;DHT22;2213;49.720;7.296;2023-04-25T02:54:06;7.90;99.90
4399;DHT22;2213;49.720;7.296;2023-04-25T02:56:38;8.00;99.90
4399;DHT22;2213;49.720;7.296;2023-04-25T02:59:08;8.00;99.90
4399;DHT22;2213;49.720;7.296;2023-04-25T03:01:36;8.00;99.90
4399;DHT22;2213;49.720;7.296;2023-04-25T03:04:05;7.90;99.90
4399;DHT22;2213;49.720;7.296;2023-04-25T03:06:36;7.90;99.90
4399;DHT22;2213;49.720;7.296;2023-04-25T03:09:06;7.90;99.90
4399;DHT22;2213;49.720;7.296;2023-04-25T03:11:38;7.90;99.90
4399;DHT22;2213;49.720;7.296;2023-04-25T03:14:07;7.90;99.90
4399;DHT22;2213;49.720;7.296;2023-04-25T03:16:37;7.90;99.90
4399;DHT22;2213;49.720;7.296;2023-04-25T03:19:06;7.90;99.90
4399;DHT22;2213;49.720;7.296;2023-04-25T03:21:37;8.00;99.90
4399;DHT22;2213;49.720;7.296;2023-04-25T03:24:06;7.90;99.90
4399;DHT22;2213;49.720;7.296;2023-04-25T03:26:36;8.00;99.90
4399;DHT22;2213;49.720;7.296;2023-04-25T03:29:06;7.90;99.90
4399;DHT22;2213;49.720;7.296;2023-04-25T03:31:37;7.90;99.90
4399;DHT22;2213;49.720;7.296;2023-04-25T03:34:07;7.90;99.90
4399;DHT22;2213;49.720;7.296;2023-04-25T03:36:37;7.90;99.90
4399;DHT22;2213;49.720;7.296;2023-04-25T03:39:07;8.00;99.90
4399;DHT22;2213;49.720;7.296;2023-04-25T03:41:38;8.00;99.90
4399;DHT22;2213;49.720;7.296;2023-04-25T03:44:08;7.90;99.90
4399;DHT22;2213;49.720;7.296;2023-04-25T03:46:37;7.90;99.90
4399;DHT22;2213;49.720;7.296;2023-04-25T03:49:06;7.90;99.90
4399;DHT22;2213;49.720;7.296;2023-04-25T03:51:35;7.90;99.90
4399;DHT22;2213;49.720;7.296;2023-04-25T03:54:04;7.90;99.90
4399;DHT22;2213;49.720;7.296;2023-04-25T03:56:35;7.90;99.90
4399;DHT22;2213;49.720;7.296;2023-04-25T03:59:07;7.90;99.90
4399;DHT22;2213;49.720;7.296;2023-04-25T04:01:37;7.90;99.90
4399;DHT22;2213;49.720;7.296;2023-04-25T04:04:06;7.90;99.90
4399;DHT22;2213;49.720;7.296;2023-04-25T04:06:36;7.90;99.90
4399;DHT22;2213;49.720;7.296;2023-04-25T04:09:06;7.90;99.90
4399;DHT22;2213;49.720;7.296;2023-04-25T04:11:38;7.90;99.90
4399;DHT22;2213;49.720;7.296;2023-04-25T04:14:10;7.90;99.90
4399;DHT22;2213;49.720;7.296;2023-04-25T04:16:40;7.90;99.90
4399;DHT22;2213;49.720;7.296;2023-04-25T04:19:09;7.90;99.90
4399;DHT22;2213;49.720;7.296;2023-04-25T04:21:39;7.90;99.90
4399;DHT22;2213;49.720;7.296;2023-04-25T04:24:09;7.90;99.90
4399;DHT22;2213;49.720;7.296;2023-04-25T04:26:40;7.90;99.90
4399;DHT22;2213;49.720;7.296;2023-04-25T04:29:14;7.90;99.90
4399;DHT22;2213;49.720;7.296;2023-04-25T04:31:48;7.90;99.90
4399;DHT22;2213;49.720;7.296;2023-04-25T04:34:18;7.90;99.90
4399;DHT22;2213;49.720;7.296;2023-04-25T04:36:49;7.90;99.90
4399;DHT22;2213;49.720;7.296;2023-04-25T04:39:18;7.90;99.90
4399;DHT22;2213;49.720;7.296;2023-04-25T04:41:47;7.90;99.90
4399;DHT22;2213;49.720;7.296;2023-04-25T04:44:19;7.90;99.90
4399;DHT22;2213;49.720;7.296;2023-04-25T04:46:49;7.90;99.90
4399;DHT22;2213;49.720;7.296;2023-04-25T04:49:19;7.90;99.90
4399;DHT22;2213;49.720;7.296;2023-04-25T04:51:50;7.90;99.90
4399;DHT22;2213;49.720;7.296;2023-04-25T04:54:20;7.90;99.90
4399;DHT22;2213;49.720;7.296;2023-04-25T04:56:51;7.90;99.90
4399;DHT22;2213;49.720;7.296;2023-04-25T04:59:22;7.90;99.90
4399;DHT22;2213;49.720;7.296;2023-04-25T05:01:53;7.80;99.90
4399;DHT22;2213;49.720;7.296;2023-04-25T05:04:22;7.80;99.90
4399;DHT22;2213;49.720;7.296;2023-04-25T05:06:52;7.80;99.90
4399;DHT22;2213;49.720;7.296;2023-04-25T05:09:22;7.80;99.90
4399;DHT22;2213;49.720;7.296;2023-04-25T05:11:53;7.90;99.90
4399;DHT22;2213;49.720;7.296;2023-04-25T05:14:24;7.90;99.90
4399;DHT22;2213;49.720;7.296;2023-04-25T05:16:54;7.90;99.90
4399;DHT22;2213;49.720;7.296;2023-04-25T05:19:23;7.90;99.90
4399;DHT22;2213;49.720;7.296;2023-04-25T05:21:53;7.90;99.90
4399;DHT22;2213;49.720;7.296;2023-04-25T05:24:23;8.00;99.90
4399;DHT22;2213;49.720;7.296;2023-04-25T05:26:54;8.00;99.90
4399;DHT22;2213;49.720;7.296;2023-04-25T05:29:25;7.90;99.90
4399;DHT22;2213;49.720;7.296;2023-04-25T05:31:55;7.90;99.90
4399;DHT22;2213;49.720;7.296;2023-04-25T05:34:25;8.00;99.90
4399;DHT22;2213;49.720;7.296;2023-04-25T05:36:56;8.00;99.90
4399;DHT22;2213;49.720;7.296;2023-04-25T05:39:26;8.00;99.90
4399;DHT22;2213;49.720;7.296;2023-04-25T05:41:56;8.10;99.90
4399;DHT22;2213;49.720;7.296;2023-04-25T05:44:28;8.10;99.90
4399;DHT22;2213;49.720;7.296;2023-04-25T05:46:57;8.10;99.90
4399;DHT22;2213;49.720;7.296;2023-04-25T05:49:28;8.00;99.90
4399;DHT22;2213;49.720;7.296;2023-04-25T05:51:58;8.10;99.90
4399;DHT22;2213;49.720;7.296;2023-04-25T05:54:28;8.10;99.90
4399;DHT22;2213;49.720;7.296;2023-04-25T05:56:58;8.10;99.90
4399;DHT22;2213;49.720;7.296;2023-04-25T05:59:29;8.10;99.90
4399;DHT22;2213;49.720;7.296;2023-04-25T06:01:59;8.10;99.90
4399;DHT22;2213;49.720;7.296;2023-04-25T06:04:30;8.10;99.90
4399;DHT22;2213;49.720;7.296;2023-04-25T06:07:01;8.10;99.90
4399;DHT22;2213;49.720;7.296;2023-04-25T06:09:30;8.00;99.90
4399;DHT22;2213;49.720;7.296;2023-04-25T06:11:59;8.00;99.90
4399;DHT22;2213;49.720;7.296;2023-04-25T06:14:31;8.10;99.90
4399;DHT22;2213;49.720;7.296;2023-04-25T06:17:01;8.10;99.90
4399;DHT22;2213;49.720;7.296;2023-04-25T06:19:34;8.10;99.90
4399;DHT22;2213;49.720;7.296;2023-04-25T06:22:03;8.20;99.90
4399;DHT22;2213;49.720;7.296;2023-04-25T06:24:35;8.20;99.90
4399;DHT22;2213;49.720;7.296;2023-04-25T06:27:06;8.20;99.90
4399;DHT22;2213;49.720;7.296;2023-04-25T06:29:37;8.20;99.90
4399;DHT22;2213;49.720;7.296;2023-04-25T06:32:08;8.20;99.90
4399;DHT22;2213;49.720;7.296;2023-04-25T06:34:37;8.20;99.90
4399;DHT22;2213;49.720;7.296;2023-04-25T06:37:06;8.20;99.90
4399;DHT22;2213;49.720;7.296;2023-04-25T06:39:35;8.10;99.90
4399;DHT22;2213;49.720;7.296;2023-04-25T06:42:08;8.10;99.90
4399;DHT22;2213;49.720;7.296;2023-04-25T06:44:40;8.10;99.90
4399;DHT22;2213;49.720;7.296;2023-04-25T06:47:10;8.00;99.90
4399;DHT22;2213;49.720;7.296;2023-04-25T06:49:43;8.00;99.90
4399;DHT22;2213;49.720;7.296;2023-04-25T06:52:14;7.90;99.90
4399;DHT22;2213;49.720;7.296;2023-04-25T06:54:45;7.90;99.90
4399;DHT22;2213;49.720;7.296;2023-04-25T06:57:15;7.80;99.90
4399;DHT22;2213;49.720;7.296;2023-04-25T06:59:48;7.90;99.90
4399;DHT22;2213;49.720;7.296;2023-04-25T07:02:19;7.90;99.90
4399;DHT22;2213;49.720;7.296;2023-04-25T07:04:50;7.90;99.90
4399;DHT22;2213;49.720;7.296;2023-04-25T07:07:21;7.90;99.90
4399;DHT22;2213;49.720;7.296;2023-04-25T07:09:51;7.90;99.90
4399;DHT22;2213;49.720;7.296;2023-04-25T07:12:22;7.80;99.90
4399;DHT22;2213;49.720;7.296;2023-04-25T07:14:54;7.90;99.90
4399;DHT22;2213;49.720;7.296;2023-04-25T07:17:24;7.80;99.90
4399;DHT22;2213;49.720;7.296;2023-04-25T07:19:55;7.80;99.90
4399;DHT22;2213;49.720;7.296;2023-04-25T07:22:25;7.90;99.90
4399;DHT22;2213;49.720;7.296;2023-04-25T07:24:56;7.90;99.90
4399;DHT22;2213;49.720;7.296;2023-04-25T07:27:27;7.90;99.90
4399;DHT22;2213;49.720;7.296;2023-04-25T07:29:57;7.90;99.90
4399;DHT22;2213;49.720;7.296;2023-04-25T07:32:26;7.90;99.90
4399;DHT22;2213;49.720;7.296;2023-04-25T07:34:57;8.00;99.90
4399;DHT22;2213;49.720;7.296;2023-04-25T07:37:26;8.10;99.90
4399;DHT22;2213;49.720;7.296;2023-04-25T07:39:55;8.10;99.90
4399;DHT22;2213;49.720;7.296;2023-04-25T07:42:25;8.10;99.90
4399;DHT22;2213;49.720;7.296;2023-04-25T07:44:57;8.00;99.90
4399;DHT22;2213;49.720;7.296;2023-04-25T07:47:26;8.20;99.90
4399;DHT22;2213;49.720;7.296;2023-04-25T07:49:56;8.30;99.90
4399;DHT22;2213;49.720;7.296;2023-04-25T07:52:26;8.40;99.90
4399;DHT22;2213;49.720;7.296;2023-04-25T07:54:55;8.40;99.90
4399;DHT22;2213;49.720;7.296;2023-04-25T07:57:26;8.30;99.90
4399;DHT22;2213;49.720;7.296;2023-04-25T07:59:58;8.40;99.90
4399;DHT22;2213;49.720;7.296;2023-04-25T08:02:27;8.30;99.90
4399;DHT22;2213;49.720;7.296;2023-04-25T08:04:57;8.30;99.90
4399;DHT22;2213;49.720;7.296;2023-04-25T08:07:28;8.30;99.90
4399;DHT22;2213;49.720;7.296;2023-04-25T08:09:58;8.30;99.90
4399;DHT22;2213;49.720;7.296;2023-04-25T08:12:28;8.30;99.90
4399;DHT22;2213;49.720;7.296;2023-04-25T08:14:59;8.30;99.90
4399;DHT22;2213;49.720;7.296;2023-04-25T08:17:28;8.30;99.90
4399;DHT22;2213;49.720;7.296;2023-04-25T08:19:59;8.30;99.90
4399;DHT22;2213;49.720;7.296;2023-04-25T08:22:30;8.40;99.90
4399;DHT22;2213;49.720;7.296;2023-04-25T08:24:59;8.30;99.90
4399;DHT22;2213;49.720;7.296;2023-04-25T08:27:29;8.20;99.90
4399;DHT22;2213;49.720;7.296;2023-04-25T08:30:00;8.20;99.90
4399;DHT22;2213;49.720;7.296;2023-04-25T08:32:32;8.20;99.90
4399;DHT22;2213;49.720;7.296;2023-04-25T08:35:06;8.10;99.90
4399;DHT22;2213;49.720;7.296;2023-04-25T08:37:36;8.00;99.90
4399;DHT22;2213;49.720;7.296;2023-04-25T08:40:12;8.00;99.90
4399;DHT22;2213;49.720;7.296;2023-04-25T08:42:46;8.00;99.90
4399;DHT22;2213;49.720;7.296;2023-04-25T08:45:20;8.00;99.90
4399;DHT22;2213;49.720;7.296;2023-04-25T08:47:53;8.00;99.90
4399;DHT22;2213;49.720;7.296;2023-04-25T08:50:23;7.80;99.90
4399;DHT22;2213;49.720;7.296;2023-04-25T08:52:54;7.90;99.90
4399;DHT22;2213;49.720;7.296;2023-04-25T08:55:30;7.90;99.90
4399;DHT22;2213;49.720;7.296;2023-04-25T08:58:01;7.90;99.90
4399;DHT22;2213;49.720;7.296;2023-04-25T09:00:35;8.00;99.90
4399;DHT22;2213;49.720;7.296;2023-04-25T09:03:04;8.10;99.90
4399;DHT22;2213;49.720;7.296;2023-04-25T09:05:35;8.10;99.90
4399;DHT22;2213;49.720;7.296;2023-04-25T09:08:07;8.20;99.90
4399;DHT22;2213;49.720;7.296;2023-04-25T09:10:38;8.30;99.90
4399;DHT22;2213;49.720;7.296;2023-04-25T09:13:08;8.30;99.90
4399;DHT22;2213;49.720;7.296;2023-04-25T09:15:52;8.40;99.90
4399;DHT22;2213;49.720;7.296;2023-04-25T09:18:25;8.40;99.90
4399;DHT22;2213;49.720;7.296;2023-04-25T09:20:58;8.50;99.90
4399;DHT22;2213;49.720;7.296;2023-04-25T09:23:43;8.60;99.90
4399;DHT22;2213;49.720;7.296;2023-04-25T09:26:17;8.60;99.90
4399;DHT22;2213;49.720;7.296;2023-04-25T09:28:47;8.60;99.90
4399;DHT22;2213;49.720;7.296;2023-04-25T09:31:23;8.70;99.90
4399;DHT22;2213;49.720;7.296;2023-04-25T09:33:59;8.80;99.90
4399;DHT22;2213;49.720;7.296;2023-04-25T09:36:30;8.80;99.90
4399;DHT22;2213;49.720;7.296;2023-04-25T09:39:12;8.90;99.90
4399;DHT22;2213;49.720;7.296;2023-04-25T09:41:43;9.00;99.90
4399;DHT22;2213;49.720;7.296;2023-04-25T09:44:13;9.00;99.90
4399;DHT22;2213;49.720;7.296;2023-04-25T09:46:46;9.10;99.90
4399;DHT22;2213;49.720;7.296;2023-04-25T09:49:21;8.90;99.90
4399;DHT22;2213;49.720;7.296;2023-04-25T09:51:54;8.80;99.90
4399;DHT22;2213;49.720;7.296;2023-04-25T09:54:25;8.70;99.90
4399;DHT22;2213;49.720;7.296;2023-04-25T09:56:55;8.70;99.90
4399;DHT22;2213;49.720;7.296;2023-04-25T09:59:25;8.60;99.90
4399;DHT22;2213;49.720;7.296;2023-04-25T10:01:57;8.50;99.90
4399;DHT22;2213;49.720;7.296;2023-04-25T10:04:28;8.50;99.90
4399;DHT22;2213;49.720;7.296;2023-04-25T10:07:06;8.70;99.90
4399;DHT22;2213;49.720;7.296;2023-04-25T10:09:39;8.80;99.90
4399;DHT22;2213;49.720;7.296;2023-04-25T10:12:09;8.80;99.90
4399;DHT22;2213;49.720;7.296;2023-04-25T10:14:40;8.90;99.90
4399;DHT22;2213;49.720;7.296;2023-04-25T10:17:11;8.70;99.90
4399;DHT22;2213;49.720;7.296;2023-04-25T10:19:42;8.70;99.90
4399;DHT22;2213;49.720;7.296;2023-04-25T10:22:17;8.90;99.90
4399;DHT22;2213;49.720;7.296;2023-04-25T10:24:53;8.90;99.90
4399;DHT22;2213;49.720;7.296;2023-04-25T10:27:24;9.00;99.90
4399;DHT22;2213;49.720;7.296;2023-04-25T10:30:03;9.10;99.90
4399;DHT22;2213;49.720;7.296;2023-04-25T10:32:39;9.10;99.90
4399;DHT22;2213;49.720;7.296;2023-04-25T10:35:13;9.20;99.90
4399;DHT22;2213;49.720;7.296;2023-04-25T10:37:58;9.30;99.90
4399;DHT22;2213;49.720;7.296;2023-04-25T10:40:33;9.40;99.90
4399;DHT22;2213;49.720;7.296;2023-04-25T10:43:36;9.40;99.90
4399;DHT22;2213;49.720;7.296;2023-04-25T10:46:17;9.40;99.90
4399;DHT22;2213;49.720;7.296;2023-04-25T10:48:51;9.50;99.90
4399;DHT22;2213;49.720;7.296;2023-04-25T10:51:22;9.50;99.90
4399;DHT22;2213;49.720;7.296;2023-04-25T10:53:58;9.50;99.90
4399;DHT22;2213;49.720;7.296;2023-04-25T10:56:30;9.50;99.90
4399;DHT22;2213;49.720;7.296;2023-04-25T10:59:07;9.50;99.90
4399;DHT22;2213;49.720;7.296;2023-04-25T11:01:39;9.60;99.90
4399;DHT22;2213;49.720;7.296;2023-04-25T11:04:21;9.60;99.90
4399;DHT22;2213;49.720;7.296;2023-04-25T11:07:13;9.60;99.90
4399;DHT22;2213;49.720;7.296;2023-04-25T11:09:52;9.70;99.90
4399;DHT22;2213;49.720;7.296;2023-04-25T11:12:24;9.70;99.90
4399;DHT22;2213;49.720;7.296;2023-04-25T11:14:59;9.60;99.90
4399;DHT22;2213;49.720;7.296;2023-04-25T11:17:30;9.70;99.90
4399;DHT22;2213;49.720;7.296;2023-04-25T11:20:03;9.80;99.90
4399;DHT22;2213;49.720;7.296;2023-04-25T11:22:38;9.80;99.90
4399;DHT22;2213;49.720;7.296;2023-04-25T11:25:11;9.90;99.90
4399;DHT22;2213;49.720;7.296;2023-04-25T11:27:50;9.90;99.90
4399;DHT22;2213;49.720;7.296;2023-04-25T11:30:21;9.90;99.90
4399;DHT22;2213;49.720;7.296;2023-04-25T11:32:52;9.90;99.90
4399;DHT22;2213;49.720;7.296;2023-04-25T11:35:23;10.00;99.90
4399;DHT22;2213;49.720;7.296;2023-04-25T11:37:54;9.90;99.90
4399;DHT22;2213;49.720;7.296;2023-04-25T11:40:24;10.00;99.90
4399;DHT22;2213;49.720;7.296;2023-04-25T11:42:53;10.10;99.90
4399;DHT22;2213;49.720;7.296;2023-04-25T11:45:23;10.00;99.90
4399;DHT22;2213;49.720;7.296;2023-04-25T11:47:54;10.00;99.90
4399;DHT22;2213;49.720;7.296;2023-04-25T11:50:24;10.00;99.90
4399;DHT22;2213;49.720;7.296;2023-04-25T11:52:57;10.00;99.90
4399;DHT22;2213;49.720;7.296;2023-04-25T11:55:30;10.20;99.90
4399;DHT22;2213;49.720;7.296;2023-04-25T11:58:00;10.10;99.90
4399;DHT22;2213;49.720;7.296;2023-04-25T12:00:31;10.20;99.90
4399;DHT22;2213;49.720;7.296;2023-04-25T12:03:01;10.20;99.90
4399;DHT22;2213;49.720;7.296;2023-04-25T12:05:32;10.00;99.90
4399;DHT22;2213;49.720;7.296;2023-04-25T12:08:11;10.10;99.90
4399;DHT22;2213;49.720;7.296;2023-04-25T12:10:43;10.10;99.90
4399;DHT22;2213;49.720;7.296;2023-04-25T12:13:21;10.10;99.90
4399;DHT22;2213;49.720;7.296;2023-04-25T12:15:53;10.20;99.90
4399;DHT22;2213;49.720;7.296;2023-04-25T12:18:24;10.20;99.90
4399;DHT22;2213;49.720;7.296;2023-04-25T12:20:56;10.10;99.90
4399;DHT22;2213;49.720;7.296;2023-04-25T12:23:27;10.20;99.90
4399;DHT22;2213;49.720;7.296;2023-04-25T12:25:58;10.10;99.90
4399;DHT22;2213;49.720;7.296;2023-04-25T12:28:32;10.00;99.90
4399;DHT22;2213;49.720;7.296;2023-04-25T12:31:03;9.90;99.90
4399;DHT22;2213;49.720;7.296;2023-04-25T12:33:35;10.10;99.90
4399;DHT22;2213;49.720;7.296;2023-04-25T12:36:08;10.10;99.90
4399;DHT22;2213;49.720;7.296;2023-04-25T12:38:41;10.20;99.90
4399;DHT22;2213;49.720;7.296;2023-04-25T12:41:10;10.30;99.90
4399;DHT22;2213;49.720;7.296;2023-04-25T12:43:41;10.30;99.90
4399;DHT22;2213;49.720;7.296;2023-04-25T12:46:10;10.30;99.90
4399;DHT22;2213;49.720;7.296;2023-04-25T12:48:40;10.20;99.90
4399;DHT22;2213;49.720;7.296;2023-04-25T12:51:12;10.30;99.90
4399;DHT22;2213;49.720;7.296;2023-04-25T12:53:42;10.30;99.90
4399;DHT22;2213;49.720;7.296;2023-04-25T12:56:12;10.40;99.90
4399;DHT22;2213;49.720;7.296;2023-04-25T12:58:42;10.50;99.90
4399;DHT22;2213;49.720;7.296;2023-04-25T13:01:11;10.50;99.90
4399;DHT22;2213;49.720;7.296;2023-04-25T13:03:41;10.60;99.90
4399;DHT22;2213;49.720;7.296;2023-04-25T13:06:12;10.60;99.90
4399;DHT22;2213;49.720;7.296;2023-04-25T13:08:42;10.60;99.90
4399;DHT22;2213;49.720;7.296;2023-04-25T13:11:11;10.60;99.90
4399;DHT22;2213;49.720;7.296;2023-04-25T13:13:43;10.70;99.90
4399;DHT22;2213;49.720;7.296;2023-04-25T13:16:13;10.70;99.90
4399;DHT22;2213;49.720;7.296;2023-04-25T13:18:42;10.70;99.90
4399;DHT22;2213;49.720;7.296;2023-04-25T13:21:13;10.80;99.90
4399;DHT22;2213;49.720;7.296;2023-04-25T13:23:43;10.80;99.90
4399;DHT22;2213;49.720;7.296;2023-04-25T13:26:14;10.80;99.90
4399;DHT22;2213;49.720;7.296;2023-04-25T13:28:44;10.80;99.90
4399;DHT22;2213;49.720;7.296;2023-04-25T13:31:13;10.80;99.90
4399;DHT22;2213;49.720;7.296;2023-04-25T13:33:44;10.70;99.90
4399;DHT22;2213;49.720;7.296;2023-04-25T13:36:16;10.70;99.90
4399;DHT22;2213;49.720;7.296;2023-04-25T13:38:47;10.80;99.90
4399;DHT22;2213;49.720;7.296;2023-04-25T13:41:17;10.80;99.90
4399;DHT22;2213;49.720;7.296;2023-04-25T13:43:47;10.70;99.90
4399;DHT22;2213;49.720;7.296;2023-04-25T13:46:16;10.60;99.90
4399;DHT22;2213;49.720;7.296;2023-04-25T13:49:06;10.60;99.90
4399;DHT22;2213;49.720;7.296;2023-04-25T13:51:40;10.70;99.90
4399;DHT22;2213;49.720;7.296;2023-04-25T13:54:10;10.70;99.90
4399;DHT22;2213;49.720;7.296;2023-04-25T13:56:40;10.60;99.90
4399;DHT22;2213;49.720;7.296;2023-04-25T13:59:10;10.70;99.90
4399;DHT22;2213;49.720;7.296;2023-04-25T14:01:39;10.70;99.90
4399;DHT22;2213;49.720;7.296;2023-04-25T14:04:09;10.70;99.90
4399;DHT22;2213;49.720;7.296;2023-04-25T14:06:41;10.70;99.90
4399;DHT22;2213;49.720;7.296;2023-04-25T14:09:10;10.60;99.90
4399;DHT22;2213;49.720;7.296;2023-04-25T14:11:40;10.60;99.90
4399;DHT22;2213;49.720;7.296;2023-04-25T14:14:10;10.60;99.90
4399;DHT22;2213;49.720;7.296;2023-04-25T14:16:40;10.60;99.90
4399;DHT22;2213;49.720;7.296;2023-04-25T14:19:09;10.60;99.90
4399;DHT22;2213;49.720;7.296;2023-04-25T14:21:41;10.50;99.90
4399;DHT22;2213;49.720;7.296;2023-04-25T14:24:12;10.60;99.90
4399;DHT22;2213;49.720;7.296;2023-04-25T14:26:42;10.70;99.90
4399;DHT22;2213;49.720;7.296;2023-04-25T14:29:12;10.90;99.90
4399;DHT22;2213;49.720;7.296;2023-04-25T14:31:42;11.00;99.90
4399;DHT22;2213;49.720;7.296;2023-04-25T14:34:13;11.20;99.90
4399;DHT22;2213;49.720;7.296;2023-04-25T14:36:43;11.30;99.90
4399;DHT22;2213;49.720;7.296;2023-04-25T14:39:12;11.30;99.90
4399;DHT22;2213;49.720;7.296;2023-04-25T14:41:42;11.30;99.90
4399;DHT22;2213;49.720;7.296;2023-04-25T14:44:13;11.40;99.50
4399;DHT22;2213;49.720;7.296;2023-04-25T14:46:42;11.50;99.90
4399;DHT22;2213;49.720;7.296;2023-04-25T14:49:11;11.60;99.20
4399;DHT22;2213;49.720;7.296;2023-04-25T14:51:42;11.60;99.10
4399;DHT22;2213;49.720;7.296;2023-04-25T14:54:12;11.60;98.80
4399;DHT22;2213;49.720;7.296;2023-04-25T14:56:42;11.30;99.10
4399;DHT22;2213;49.720;7.296;2023-04-25T14:59:13;11.30;99.70
4399;DHT22;2213;49.720;7.296;2023-04-25T15:01:42;11.20;99.90
4399;DHT22;2213;49.720;7.296;2023-04-25T15:04:13;11.30;99.20
4399;DHT22;2213;49.720;7.296;2023-04-25T15:06:46;11.20;99.10
4399;DHT22;2213;49.720;7.296;2023-04-25T15:09:16;11.20;98.90
4399;DHT22;2213;49.720;7.296;2023-04-25T15:11:46;11.20;98.90
4399;DHT22;2213;49.720;7.296;2023-04-25T15:14:16;11.10;99.90
4399;DHT22;2213;49.720;7.296;2023-04-25T15:16:46;11.10;99.90
4399;DHT22;2213;49.720;7.296;2023-04-25T15:19:15;11.10;99.10
4399;DHT22;2213;49.720;7.296;2023-04-25T15:21:43;11.10;98.90
4399;DHT22;2213;49.720;7.296;2023-04-25T15:24:15;11.20;99.40
4399;DHT22;2213;49.720;7.296;2023-04-25T15:26:45;11.30;99.30
4399;DHT22;2213;49.720;7.296;2023-04-25T15:29:15;11.40;98.50
4399;DHT22;2213;49.720;7.296;2023-04-25T15:31:46;11.40;98.10
4399;DHT22;2213;49.720;7.296;2023-04-25T15:34:15;11.40;98.30
4399;DHT22;2213;49.720;7.296;2023-04-25T15:36:47;11.30;97.60
4399;DHT22;2213;49.720;7.296;2023-04-25T15:39:17;11.30;99.00
4399;DHT22;2213;49.720;7.296;2023-04-25T15:41:47;11.40;97.90
4399;DHT22;2213;49.720;7.296;2023-04-25T15:44:16;11.20;97.30
4399;DHT22;2213;49.720;7.296;2023-04-25T15:46:45;11.20;97.20
4399;DHT22;2213;49.720;7.296;2023-04-25T15:49:15;11.20;96.40
4399;DHT22;2213;49.720;7.296;2023-04-25T15:51:48;11.20;96.30
4399;DHT22;2213;49.720;7.296;2023-04-25T15:54:17;11.20;96.60
4399;DHT22;2213;49.720;7.296;2023-04-25T15:56:47;11.30;97.00
4399;DHT22;2213;49.720;7.296;2023-04-25T15:59:16;11.30;96.40
4399;DHT22;2213;49.720;7.296;2023-04-25T16:01:46;11.30;95.70
4399;DHT22;2213;49.720;7.296;2023-04-25T16:04:16;11.40;97.50
4399;DHT22;2213;49.720;7.296;2023-04-25T16:06:48;11.20;96.20
4399;DHT22;2213;49.720;7.296;2023-04-25T16:09:17;11.30;96.60
4399;DHT22;2213;49.720;7.296;2023-04-25T16:11:46;11.30;96.30
4399;DHT22;2213;49.720;7.296;2023-04-25T16:14:16;11.30;96.20
4399;DHT22;2213;49.720;7.296;2023-04-25T16:16:45;11.20;95.90
4399;DHT22;2213;49.720;7.296;2023-04-25T16:19:15;11.10;95.40
4399;DHT22;2213;49.720;7.296;2023-04-25T16:21:44;11.20;97.40
4399;DHT22;2213;49.720;7.296;2023-04-25T16:24:14;11.20;97.50
4399;DHT22;2213;49.720;7.296;2023-04-25T16:26:44;11.20;96.70
4399;DHT22;2213;49.720;7.296;2023-04-25T16:29:13;11.30;97.10
4399;DHT22;2213;49.720;7.296;2023-04-25T16:31:45;11.20;96.30
4399;DHT22;2213;49.720;7.296;2023-04-25T16:34:17;11.30;96.00
4399;DHT22;2213;49.720;7.296;2023-04-25T16:36:46;11.20;96.40